Indus, Minnesota
Current Conditions -  °F | °C
As of 11:53 PM on Friday 19 Dec 2014 (Local Time) from KBDE Reporting Station
Light Snow Light Snow  
Wind Chill: 18°   Ceiling: 1900
Heat Index: 25°   Visibility: 5mi
Dew Point: 22°   Wind: 6mph
Humidity: 88%   Direction: 130°SE
Pressure: 30.04"   Gusts: NA
Location:  48.6069°N, 94.172°W
Report Text: KBDE 200553Z AUTO 13005KT 5SM -SN BR FEW009 OVC019 M04/M06 A3004 RMK AO2 SLP192 P0000 60000 T10391056 11039 21044 410391072 56004 TSNO
Loading
Personal Weather Stations






























Interactive Weather Map New forecast layout! Learn more

10-Day Weather Forecast

Advertisements
Track Severe Weather on mobile